createdAt,value
2017-10-03T00:00:37.529Z,14.50
2017-10-03T00:03:05.041Z,14.50
2017-10-03T00:05:33.313Z,14.40
2017-10-03T00:08:00.837Z,14.40
2017-10-03T00:10:28.349Z,14.40
2017-10-03T00:12:56.840Z,14.30
2017-10-03T00:15:24.342Z,14.30
2017-10-03T00:17:51.852Z,14.30
2017-10-03T00:20:19.368Z,14.30
2017-10-03T00:22:46.982Z,14.20
2017-10-03T00:25:14.511Z,14.20
2017-10-03T00:27:42.031Z,14.20
2017-10-03T00:30:09.551Z,14.20
2017-10-03T00:32:37.063Z,14.20
2017-10-03T00:35:04.577Z,14.20
2017-10-03T00:37:32.087Z,14.20
2017-10-03T00:39:59.607Z,14.20
2017-10-03T00:42:27.114Z,14.20
2017-10-03T00:44:54.618Z,14.20
2017-10-03T00:47:22.151Z,14.20
2017-10-03T00:49:49.692Z,14.20
2017-10-03T00:52:17.233Z,14.20
2017-10-03T00:54:44.745Z,14.10
2017-10-03T00:57:12.250Z,14.10
2017-10-03T00:59:39.769Z,14.00
2017-10-03T01:02:07.289Z,14.00
2017-10-03T01:04:34.799Z,13.90
2017-10-03T01:07:02.305Z,13.90
2017-10-03T01:09:29.824Z,13.80
2017-10-03T01:11:57.336Z,13.80
2017-10-03T01:14:26.437Z,13.80
2017-10-03T01:16:53.936Z,13.70
2017-10-03T01:19:21.481Z,13.70
2017-10-03T01:21:48.980Z,13.70
2017-10-03T01:24:16.478Z,13.70
2017-10-03T01:26:44.027Z,13.70
2017-10-03T01:29:11.520Z,13.70
2017-10-03T01:31:39.037Z,13.70
2017-10-03T01:34:06.534Z,13.60
2017-10-03T01:36:34.032Z,13.60
2017-10-03T01:39:01.568Z,13.70
2017-10-03T01:41:29.072Z,13.70
2017-10-03T01:43:56.582Z,13.70
2017-10-03T01:46:24.076Z,13.70
2017-10-03T01:48:51.600Z,13.70
2017-10-03T01:51:19.100Z,13.60
2017-10-03T01:53:46.630Z,13.60
2017-10-03T01:56:14.142Z,13.60
2017-10-03T01:58:42.419Z,13.50
2017-10-03T02:01:10.711Z,13.50
2017-10-03T02:03:38.971Z,13.50
2017-10-03T02:06:07.246Z,13.40
2017-10-03T02:08:35.527Z,13.50
2017-10-03T02:11:03.811Z,13.50
2017-10-03T02:13:32.097Z,13.40
2017-10-03T02:16:00.375Z,13.40
2017-10-03T02:18:27.871Z,13.40
2017-10-03T02:20:55.381Z,13.40
2017-10-03T02:23:22.885Z,13.40
2017-10-03T02:25:50.533Z,13.40
2017-10-03T02:28:18.128Z,13.40
2017-10-03T02:30:45.631Z,13.40
2017-10-03T02:33:13.127Z,13.40
2017-10-03T02:35:40.652Z,13.40
2017-10-03T02:38:08.943Z,13.40
2017-10-03T02:40:36.478Z,13.40
2017-10-03T02:43:03.996Z,13.40
2017-10-03T02:45:31.508Z,13.50
2017-10-03T02:47:59.027Z,13.50
2017-10-03T02:50:26.523Z,13.40
2017-10-03T02:52:54.051Z,13.40
2017-10-03T02:55:21.596Z,13.40
2017-10-03T02:57:49.105Z,13.50
2017-10-03T03:00:16.610Z,13.40
2017-10-03T03:02:44.110Z,13.40
2017-10-03T03:05:12.449Z,13.40
2017-10-03T03:07:40.086Z,13.40
2017-10-03T03:10:07.602Z,13.40
2017-10-03T03:12:35.107Z,13.40
2017-10-03T03:15:02.607Z,13.30
2017-10-03T03:17:30.140Z,13.30
2017-10-03T03:19:57.657Z,13.30
2017-10-03T03:22:25.207Z,13.40
2017-10-03T03:24:53.459Z,13.30
2017-10-03T03:27:20.975Z,13.30
2017-10-03T03:29:48.516Z,13.30
2017-10-03T03:32:16.040Z,13.30
2017-10-03T03:34:43.563Z,13.30
2017-10-03T03:37:11.055Z,13.40
2017-10-03T03:39:38.556Z,13.30
2017-10-03T03:42:06.074Z,13.30
2017-10-03T03:44:33.567Z,13.30
2017-10-03T03:47:01.109Z,13.30
2017-10-03T03:49:28.671Z,13.30
2017-10-03T03:51:56.950Z,13.20
2017-10-03T03:54:25.225Z,13.20
2017-10-03T03:56:53.494Z,13.20
2017-10-03T03:59:21.768Z,13.10
2017-10-03T04:01:49.270Z,13.10
2017-10-03T04:04:16.764Z,13.10
2017-10-03T04:06:44.278Z,13.20
2017-10-03T04:09:11.777Z,13.20
2017-10-03T04:11:39.291Z,13.20
2017-10-03T04:14:06.794Z,13.20
2017-10-03T04:16:34.295Z,13.20
2017-10-03T04:19:01.822Z,13.30
2017-10-03T04:21:29.320Z,13.20
2017-10-03T04:23:57.596Z,13.20
2017-10-03T04:26:25.873Z,13.20
2017-10-03T04:28:54.175Z,13.10
2017-10-03T04:31:21.686Z,13.10
2017-10-03T04:33:49.188Z,13.20
2017-10-03T04:36:16.706Z,13.20
2017-10-03T04:38:44.224Z,13.10
2017-10-03T04:41:11.723Z,13.20
2017-10-03T04:43:39.240Z,13.20
2017-10-03T04:46:06.743Z,13.20
2017-10-03T04:48:34.253Z,13.10
2017-10-03T04:51:01.744Z,13.10
2017-10-03T04:53:29.261Z,13.10
2017-10-03T04:55:56.777Z,13.10
2017-10-03T04:58:24.289Z,13.10
2017-10-03T05:00:51.804Z,13.10
2017-10-03T05:03:19.309Z,13.00
2017-10-03T05:05:46.813Z,13.10
2017-10-03T05:08:14.315Z,13.10
2017-10-03T05:10:41.828Z,13.10
2017-10-03T05:13:09.330Z,13.10
2017-10-03T05:15:36.830Z,13.10
2017-10-03T05:18:04.363Z,13.10
2017-10-03T05:20:31.875Z,13.10
2017-10-03T05:22:59.384Z,13.10
2017-10-03T05:25:26.894Z,13.20
2017-10-03T05:27:55.154Z,13.10
2017-10-03T05:30:22.657Z,13.10
2017-10-03T05:32:50.156Z,13.10
2017-10-03T05:35:17.659Z,13.20
2017-10-03T05:37:45.160Z,13.20
2017-10-03T05:40:12.684Z,13.20
2017-10-03T05:42:40.182Z,13.10
2017-10-03T05:45:07.691Z,13.20
2017-10-03T05:47:35.196Z,13.20
2017-10-03T05:50:02.718Z,13.20
2017-10-03T05:52:30.232Z,13.20
2017-10-03T05:54:57.740Z,13.30
2017-10-03T05:57:25.280Z,13.30
2017-10-03T05:59:53.553Z,13.20
2017-10-03T06:02:21.840Z,13.20
2017-10-03T06:04:50.133Z,13.20
2017-10-03T06:07:17.621Z,13.10
2017-10-03T06:09:45.143Z,13.20
2017-10-03T06:12:12.652Z,13.30
2017-10-03T06:14:40.162Z,13.30
2017-10-03T06:17:07.672Z,13.40
2017-10-03T06:19:35.174Z,13.40
2017-10-03T06:22:02.676Z,13.40
2017-10-03T06:24:30.182Z,13.40
2017-10-03T06:26:58.472Z,13.30
2017-10-03T06:29:26.730Z,13.30
2017-10-03T06:31:55.013Z,13.40
2017-10-03T06:34:23.303Z,13.30
2017-10-03T06:36:51.571Z,13.40
2017-10-03T06:39:19.885Z,13.40
2017-10-03T06:41:47.388Z,13.40
2017-10-03T06:44:14.961Z,13.40
2017-10-03T06:46:43.247Z,13.30
2017-10-03T06:49:11.513Z,13.40
2017-10-03T06:51:39.798Z,13.30
2017-10-03T06:54:08.072Z,13.30
2017-10-03T06:56:36.343Z,13.30
2017-10-03T06:59:04.678Z,13.30
2017-10-03T07:01:32.254Z,13.30
2017-10-03T07:03:59.843Z,13.40
2017-10-03T07:06:27.352Z,13.40
2017-10-03T07:08:56.011Z,13.40
2017-10-03T07:11:23.871Z,13.50
2017-10-03T07:13:51.409Z,13.40
2017-10-03T07:16:19.707Z,13.50
2017-10-03T07:18:47.980Z,13.50
2017-10-03T07:21:16.320Z,13.60
2017-10-03T07:23:43.815Z,13.60
2017-10-03T07:26:11.454Z,13.60
2017-10-03T07:28:38.968Z,13.70
2017-10-03T07:31:06.502Z,13.60
2017-10-03T07:33:35.120Z,13.70
2017-10-03T07:36:02.676Z,13.70
2017-10-03T07:38:30.195Z,13.70
2017-10-03T07:40:58.372Z,13.70
2017-10-03T07:43:26.689Z,13.80
2017-10-03T07:45:54.230Z,13.70
2017-10-03T07:48:21.847Z,13.70
2017-10-03T07:50:49.503Z,13.80
2017-10-03T07:53:17.009Z,13.70
2017-10-03T07:55:44.512Z,13.70
2017-10-03T07:58:12.006Z,13.60
2017-10-03T08:00:40.286Z,13.70
2017-10-03T08:03:09.279Z,13.80
2017-10-03T08:05:36.781Z,13.70
2017-10-03T08:08:04.372Z,13.80
2017-10-03T08:10:32.001Z,13.70
2017-10-03T08:12:59.635Z,13.70
2017-10-03T08:15:27.949Z,13.80
2017-10-03T08:17:55.472Z,13.80
2017-10-03T08:20:22.979Z,13.80
2017-10-03T08:22:50.926Z,13.90
2017-10-03T08:25:18.463Z,14.00
2017-10-03T08:27:45.978Z,14.00
2017-10-03T08:30:13.488Z,14.20
2017-10-03T08:32:41.082Z,14.30
2017-10-03T08:35:08.588Z,14.50
2017-10-03T08:37:38.193Z,14.50
2017-10-03T08:40:05.723Z,14.50
2017-10-03T08:42:33.240Z,14.50
2017-10-03T08:45:00.749Z,14.60
2017-10-03T08:47:28.254Z,14.50
2017-10-03T08:49:55.767Z,14.50
2017-10-03T08:52:23.302Z,14.50
2017-10-03T08:54:50.820Z,14.50
2017-10-03T08:57:18.342Z,14.40
2017-10-03T08:59:45.863Z,14.40
2017-10-03T09:02:13.392Z,14.50
2017-10-03T09:04:41.035Z,14.60
2017-10-03T09:07:08.573Z,14.60
2017-10-03T09:09:36.850Z,14.50
2017-10-03T09:12:04.388Z,14.50
2017-10-03T09:14:31.895Z,14.60
2017-10-03T09:17:01.167Z,14.60
2017-10-03T09:19:28.680Z,14.70
2017-10-03T09:21:56.171Z,14.80
2017-10-03T09:24:23.689Z,14.90
2017-10-03T09:26:51.971Z,14.90
2017-10-03T09:29:20.247Z,15.00
2017-10-03T09:31:48.565Z,15.10
2017-10-03T09:34:16.185Z,15.10
2017-10-03T09:36:44.496Z,15.10
2017-10-03T09:39:11.983Z,15.10
2017-10-03T09:41:39.667Z,15.10
2017-10-03T09:44:07.184Z,15.00
2017-10-03T09:46:34.692Z,15.00
2017-10-03T09:49:02.959Z,15.10
2017-10-03T09:51:30.459Z,15.10
2017-10-03T09:53:57.985Z,15.30
2017-10-03T09:56:25.628Z,15.40
2017-10-03T09:58:53.122Z,15.40
2017-10-03T10:01:20.627Z,15.40
2017-10-03T10:03:48.143Z,15.40
2017-10-03T10:06:15.658Z,15.40
2017-10-03T10:08:43.173Z,15.40
2017-10-03T10:11:10.744Z,15.50
2017-10-03T10:13:38.357Z,15.60
2017-10-03T10:16:05.876Z,15.50
2017-10-03T10:18:33.387Z,15.30
2017-10-03T10:21:01.675Z,15.20
2017-10-03T10:23:29.224Z,15.10
2017-10-03T10:25:57.510Z,15.00
2017-10-03T10:28:25.789Z,15.20
2017-10-03T10:30:54.090Z,15.40
2017-10-03T10:33:21.651Z,15.30
2017-10-03T10:35:49.160Z,15.50
2017-10-03T10:38:16.668Z,15.70
2017-10-03T10:40:44.286Z,16.00
2017-10-03T10:43:11.804Z,16.20
2017-10-03T10:45:39.304Z,18.10
2017-10-03T10:48:06.841Z,18.20
2017-10-03T10:50:34.368Z,18.50
2017-10-03T10:53:01.897Z,18.20
2017-10-03T10:55:29.392Z,17.50
2017-10-03T10:57:56.969Z,16.90
2017-10-03T11:00:24.561Z,16.60
2017-10-03T11:02:52.057Z,16.30
2017-10-03T11:05:19.666Z,16.60
2017-10-03T11:07:47.172Z,16.60
2017-10-03T11:10:14.705Z,17.20
2017-10-03T11:12:42.222Z,17.30
2017-10-03T11:15:09.727Z,17.70
2017-10-03T11:17:37.999Z,19.20
2017-10-03T11:20:06.281Z,19.20
2017-10-03T11:22:46.504Z,18.70
2017-10-03T11:25:14.002Z,18.70
2017-10-03T11:27:41.513Z,18.40
2017-10-03T11:30:09.026Z,17.90
2017-10-03T11:32:37.331Z,17.20
2017-10-03T11:35:04.845Z,17.20
2017-10-03T11:37:32.360Z,16.80
2017-10-03T11:39:59.887Z,16.40
2017-10-03T11:42:27.408Z,16.30
2017-10-03T11:44:54.913Z,16.20
2017-10-03T11:47:22.411Z,15.90
2017-10-03T11:49:49.918Z,15.70
2017-10-03T11:52:18.181Z,15.30
2017-10-03T11:54:49.886Z,15.50
2017-10-03T11:57:17.387Z,15.50
2017-10-03T11:59:46.005Z,17.10
2017-10-03T12:02:13.559Z,17.10
2017-10-03T12:04:41.835Z,19.20
2017-10-03T12:07:09.369Z,19.20
2017-10-03T12:09:36.905Z,19.80
2017-10-03T12:12:04.400Z,20.40
2017-10-03T12:14:32.675Z,19.50
2017-10-03T12:17:00.207Z,19.40
2017-10-03T12:19:27.699Z,19.20
2017-10-03T12:21:55.991Z,18.90
2017-10-03T12:24:23.499Z,18.90
2017-10-03T12:26:51.356Z,18.50
2017-10-03T12:29:18.894Z,18.30
2017-10-03T12:31:46.415Z,18.80
2017-10-03T12:34:13.928Z,18.90
2017-10-03T12:36:41.539Z,18.70
2017-10-03T12:39:09.077Z,18.70
2017-10-03T12:41:36.615Z,19.10
2017-10-03T12:44:04.222Z,19.20
2017-10-03T12:46:32.535Z,18.80
2017-10-03T12:49:03.550Z,18.80
2017-10-03T12:51:31.058Z,18.70
2017-10-03T12:53:58.558Z,18.60
2017-10-03T12:56:26.827Z,18.50
2017-10-03T12:58:55.100Z,18.00
2017-10-03T13:01:23.382Z,17.80
2017-10-03T13:03:51.667Z,17.90
2017-10-03T13:06:19.940Z,18.10
2017-10-03T13:08:48.209Z,17.90
2017-10-03T13:11:16.508Z,17.30
2017-10-03T13:13:44.803Z,17.00
2017-10-03T13:16:12.344Z,17.00
2017-10-03T13:18:39.842Z,16.70
2017-10-03T13:21:07.364Z,16.70
2017-10-03T13:23:34.900Z,16.90
2017-10-03T13:26:02.400Z,17.00
2017-10-03T13:28:29.901Z,16.90
2017-10-03T13:30:57.407Z,16.70
2017-10-03T13:33:24.930Z,16.90
2017-10-03T13:35:52.539Z,17.10
2017-10-03T13:38:20.092Z,17.30
2017-10-03T13:40:47.624Z,17.20
2017-10-03T13:43:15.927Z,17.10
2017-10-03T13:45:43.479Z,17.00
2017-10-03T13:48:11.008Z,16.90
2017-10-03T13:50:38.517Z,16.60
2017-10-03T13:53:06.058Z,16.40
2017-10-03T13:55:33.554Z,16.10
2017-10-03T13:58:01.815Z,16.30
2017-10-03T14:00:29.349Z,16.30
2017-10-03T14:02:57.927Z,16.90
2017-10-03T14:05:25.440Z,16.90
2017-10-03T14:07:53.758Z,18.90
2017-10-03T14:10:22.031Z,20.30
2017-10-03T14:12:50.307Z,22.10
2017-10-03T14:15:18.576Z,22.70
2017-10-03T14:17:46.110Z,22.70
2017-10-03T14:20:13.612Z,21.90
2017-10-03T14:22:41.140Z,20.50
2017-10-03T14:25:08.669Z,19.80
2017-10-03T14:27:36.165Z,20.00
2017-10-03T14:30:04.054Z,21.10
2017-10-03T14:32:31.556Z,20.50
2017-10-03T14:34:59.063Z,19.30
2017-10-03T14:37:27.352Z,18.10
2017-10-03T14:39:55.624Z,18.00
2017-10-03T14:42:23.907Z,17.90
2017-10-03T14:44:52.175Z,17.80
2017-10-03T14:47:20.477Z,17.70
2017-10-03T14:49:47.996Z,17.60
2017-10-03T14:52:15.519Z,17.50
2017-10-03T14:54:43.030Z,17.30
2017-10-03T14:57:11.721Z,17.30
2017-10-03T14:59:40.041Z,17.40
2017-10-03T15:02:07.559Z,17.40
2017-10-03T15:04:35.836Z,18.10
2017-10-03T15:07:03.339Z,18.00
2017-10-03T15:09:30.844Z,17.60
2017-10-03T15:11:59.120Z,18.00
2017-10-03T15:14:27.400Z,18.00
2017-10-03T15:16:55.686Z,17.80
2017-10-03T15:19:23.994Z,17.50
2017-10-03T15:21:51.525Z,17.50
2017-10-03T15:24:19.046Z,17.30
2017-10-03T15:26:46.569Z,17.10
2017-10-03T15:29:14.118Z,16.90
2017-10-03T15:31:41.628Z,16.80
2017-10-03T15:34:09.250Z,16.70
2017-10-03T15:36:36.779Z,16.60
2017-10-03T15:39:05.080Z,16.40
2017-10-03T15:41:32.580Z,16.40
2017-10-03T15:44:00.126Z,16.30
2017-10-03T15:46:27.642Z,16.20
2017-10-03T15:48:55.912Z,16.00
2017-10-03T15:51:24.182Z,16.00
2017-10-03T15:53:52.466Z,15.90
2017-10-03T15:56:20.746Z,15.90
2017-10-03T15:58:49.054Z,15.90
2017-10-03T16:01:16.563Z,15.90
2017-10-03T16:03:44.079Z,15.80
2017-10-03T16:06:11.592Z,15.60
2017-10-03T16:08:39.901Z,15.10
2017-10-03T16:11:07.467Z,15.00
2017-10-03T16:13:34.992Z,15.00
2017-10-03T16:16:03.579Z,14.80
2017-10-03T16:18:31.098Z,14.80
2017-10-03T16:20:58.632Z,14.90
2017-10-03T16:23:26.127Z,14.90
2017-10-03T16:25:53.661Z,14.90
2017-10-03T16:28:21.180Z,14.90
2017-10-03T16:30:49.456Z,14.90
2017-10-03T16:33:17.727Z,14.90
2017-10-03T16:35:45.231Z,14.90
2017-10-03T16:38:12.737Z,15.00
2017-10-03T16:40:40.437Z,15.00
2017-10-03T16:43:08.051Z,15.00
2017-10-03T16:45:35.596Z,15.00
2017-10-03T16:48:03.108Z,15.00
2017-10-03T16:50:30.751Z,15.00
2017-10-03T16:52:59.044Z,14.90
2017-10-03T16:55:26.560Z,14.90
2017-10-03T16:57:54.090Z,14.90
2017-10-03T17:00:21.810Z,14.80
2017-10-03T17:02:50.115Z,14.80
2017-10-03T17:05:17.762Z,14.80
2017-10-03T17:07:46.053Z,14.80
2017-10-03T17:10:13.559Z,14.80
2017-10-03T17:12:41.086Z,14.70
2017-10-03T17:15:08.592Z,14.70
2017-10-03T17:17:36.093Z,14.60
2017-10-03T17:20:03.619Z,14.60
2017-10-03T17:22:31.135Z,14.60
2017-10-03T17:24:58.667Z,14.50
2017-10-03T17:27:26.181Z,14.50
2017-10-03T17:29:53.739Z,14.50
2017-10-03T17:32:21.295Z,14.50
2017-10-03T17:34:48.815Z,14.40
2017-10-03T17:37:16.322Z,14.40
2017-10-03T17:39:45.567Z,14.30
2017-10-03T17:42:13.424Z,14.20
2017-10-03T17:44:40.937Z,14.20
2017-10-03T17:47:08.745Z,14.20
2017-10-03T17:49:36.609Z,14.10
2017-10-03T17:52:04.887Z,14.10
2017-10-03T17:54:32.720Z,14.10
2017-10-03T17:57:00.232Z,14.10
2017-10-03T17:59:27.789Z,14.10
2017-10-03T18:01:55.292Z,14.20
2017-10-03T18:04:22.845Z,14.20
2017-10-03T18:06:50.660Z,14.20
2017-10-03T18:09:18.163Z,14.20
2017-10-03T18:11:46.501Z,14.10
2017-10-03T18:14:14.013Z,14.10
2017-10-03T18:16:41.675Z,14.20
2017-10-03T18:19:09.176Z,14.20
2017-10-03T18:21:36.685Z,14.20
2017-10-03T18:24:04.992Z,14.20
2017-10-03T18:26:33.260Z,14.20
2017-10-03T18:29:00.799Z,14.20
2017-10-03T18:31:28.311Z,14.20
2017-10-03T18:33:55.851Z,14.30
2017-10-03T18:36:24.144Z,14.30
2017-10-03T18:38:52.444Z,14.30
2017-10-03T18:41:19.950Z,14.30
2017-10-03T18:43:47.573Z,14.30
2017-10-03T18:46:15.118Z,14.20
2017-10-03T18:48:42.645Z,14.20
2017-10-03T18:51:11.053Z,14.10
2017-10-03T18:53:39.738Z,14.00
2017-10-03T18:56:07.248Z,14.00
2017-10-03T18:58:34.763Z,14.00
2017-10-03T19:01:02.278Z,14.00
2017-10-03T19:03:29.807Z,14.00
2017-10-03T19:05:58.104Z,13.90
2017-10-03T19:08:25.639Z,13.80
2017-10-03T19:10:53.191Z,13.80
2017-10-03T19:13:20.711Z,13.80
2017-10-03T19:15:48.981Z,13.80
2017-10-03T19:18:18.401Z,13.80
2017-10-03T19:20:45.921Z,13.80
2017-10-03T19:23:13.492Z,13.80
2017-10-03T19:25:41.060Z,13.70
2017-10-03T19:28:09.426Z,13.70
2017-10-03T19:30:36.943Z,13.60
2017-10-03T19:33:04.485Z,13.70
2017-10-03T19:35:31.985Z,13.60
2017-10-03T19:37:59.532Z,13.60
2017-10-03T19:40:27.418Z,13.60
2017-10-03T19:42:54.937Z,13.60
2017-10-03T19:45:22.450Z,13.60
2017-10-03T19:47:49.999Z,13.60
2017-10-03T19:50:18.270Z,13.50
2017-10-03T19:52:45.791Z,13.50
2017-10-03T19:55:13.357Z,13.40
2017-10-03T19:57:40.870Z,13.40
2017-10-03T20:00:08.669Z,13.40
2017-10-03T20:02:36.229Z,13.40
2017-10-03T20:05:03.742Z,13.30
2017-10-03T20:07:31.264Z,13.20
2017-10-03T20:09:58.757Z,13.20
2017-10-03T20:12:26.268Z,13.10
2017-10-03T20:14:53.777Z,13.10
2017-10-03T20:17:21.342Z,13.10
2017-10-03T20:19:48.879Z,13.00
2017-10-03T20:22:16.406Z,13.00
2017-10-03T20:24:43.919Z,12.90
2017-10-03T20:27:11.445Z,12.90
2017-10-03T20:29:39.098Z,12.80
2017-10-03T20:32:06.725Z,12.80
2017-10-03T20:34:35.060Z,12.70
2017-10-03T20:37:02.570Z,12.70
2017-10-03T20:39:30.071Z,12.70
2017-10-03T20:41:57.590Z,12.70
2017-10-03T20:44:25.950Z,12.70
2017-10-03T20:46:53.495Z,12.70
2017-10-03T20:49:21.000Z,12.70
2017-10-03T20:51:48.515Z,12.70
2017-10-03T20:54:16.055Z,12.60
2017-10-03T20:56:43.572Z,12.60
2017-10-03T20:59:12.013Z,12.60
2017-10-03T21:01:39.567Z,12.60
2017-10-03T21:04:07.328Z,12.50
2017-10-03T21:06:34.865Z,12.50
2017-10-03T21:09:02.477Z,12.50
2017-10-03T21:11:30.110Z,12.50
2017-10-03T21:13:57.629Z,12.50
2017-10-03T21:16:25.177Z,12.50
2017-10-03T21:18:52.999Z,12.50
2017-10-03T21:21:20.552Z,12.50
2017-10-03T21:23:48.348Z,12.50
2017-10-03T21:26:15.873Z,12.40
2017-10-03T21:28:43.553Z,12.40
2017-10-03T21:31:11.091Z,12.30
2017-10-03T21:33:38.706Z,12.30
2017-10-03T21:36:06.243Z,12.30
2017-10-03T21:38:33.789Z,12.30
2017-10-03T21:41:01.354Z,12.30
2017-10-03T21:43:28.880Z,12.30
2017-10-03T21:45:56.387Z,12.30
2017-10-03T21:48:23.911Z,12.30
2017-10-03T21:50:51.417Z,12.20
2017-10-03T21:53:18.931Z,12.30
2017-10-03T21:55:46.544Z,12.20
2017-10-03T21:58:14.055Z,12.20
2017-10-03T22:00:41.563Z,12.20
2017-10-03T22:03:09.238Z,12.20
2017-10-03T22:05:36.744Z,12.20
2017-10-03T22:08:04.255Z,12.20
2017-10-03T22:10:31.756Z,12.10
2017-10-03T22:12:59.303Z,12.20
2017-10-03T22:15:26.812Z,12.10
2017-10-03T22:17:54.337Z,12.10
2017-10-03T22:20:21.851Z,12.10
2017-10-03T22:22:49.354Z,12.10
2017-10-03T22:25:17.070Z,12.10
2017-10-03T22:27:44.622Z,12.10
2017-10-03T22:30:12.902Z,12.00
2017-10-03T22:32:52.989Z,12.00
2017-10-03T22:35:20.574Z,12.00
2017-10-03T22:37:48.105Z,12.10
2017-10-03T22:40:15.620Z,12.00
2017-10-03T22:42:43.130Z,12.00
2017-10-03T22:45:10.652Z,12.00
2017-10-03T22:47:38.160Z,11.90
2017-10-03T22:50:05.699Z,11.90
2017-10-03T22:52:33.200Z,11.90
2017-10-03T22:55:00.702Z,11.90
2017-10-03T22:57:28.201Z,11.90
2017-10-03T22:59:56.485Z,11.80
2017-10-03T23:02:24.040Z,11.80
2017-10-03T23:04:51.557Z,11.80
2017-10-03T23:07:19.060Z,11.90
2017-10-03T23:09:46.580Z,11.90
2017-10-03T23:12:14.102Z,11.90
2017-10-03T23:14:41.603Z,11.90
2017-10-03T23:17:09.122Z,11.90
2017-10-03T23:19:36.628Z,11.90
2017-10-03T23:22:04.153Z,11.90
2017-10-03T23:24:32.443Z,12.00
2017-10-03T23:26:59.952Z,11.90
2017-10-03T23:29:28.295Z,11.90
2017-10-03T23:31:55.797Z,11.90
2017-10-03T23:34:23.294Z,11.90
2017-10-03T23:36:50.815Z,12.00
2017-10-03T23:39:18.344Z,12.00
2017-10-03T23:41:45.853Z,12.00
2017-10-03T23:44:13.358Z,11.90
2017-10-03T23:46:40.880Z,12.00
2017-10-03T23:49:09.163Z,12.00
2017-10-03T23:51:37.431Z,12.00
2017-10-03T23:54:06.088Z,11.90
2017-10-03T23:56:33.633Z,11.90
2017-10-03T23:59:01.134Z,12.00
